sensor_id;sensor_type;location;lat;lon;timestamp;P1;durP1;ratioP1;P2;durP2;ratioP2
54947;SDS011;41113;41.882;12.530;2023-02-18T00:00:20;53.50;;;38.35;;
54947;SDS011;41113;41.882;12.530;2023-02-18T00:02:47;62.53;;;41.88;;
54947;SDS011;41113;41.882;12.530;2023-02-18T00:05:13;56.80;;;39.33;;
54947;SDS011;41113;41.882;12.530;2023-02-18T00:07:39;55.22;;;40.53;;
54947;SDS011;41113;41.882;12.530;2023-02-18T00:10:07;65.72;;;42.60;;
54947;SDS011;41113;41.882;12.530;2023-02-18T00:15:00;61.20;;;40.33;;
54947;SDS011;41113;41.882;12.530;2023-02-18T00:17:27;59.10;;;41.30;;
54947;SDS011;41113;41.882;12.530;2023-02-18T00:19:53;58.80;;;42.05;;
54947;SDS011;41113;41.882;12.530;2023-02-18T00:22:18;60.58;;;43.33;;
54947;SDS011;41113;41.882;12.530;2023-02-18T00:24:44;54.65;;;40.97;;
54947;SDS011;41113;41.882;12.530;2023-02-18T00:27:09;61.97;;;43.38;;
54947;SDS011;41113;41.882;12.530;2023-02-18T00:29:35;55.63;;;40.22;;
54947;SDS011;41113;41.882;12.530;2023-02-18T00:32:01;61.45;;;43.38;;
54947;SDS011;41113;41.882;12.530;2023-02-18T00:34:26;60.33;;;42.75;;
54947;SDS011;41113;41.882;12.530;2023-02-18T00:36:51;63.58;;;43.13;;
54947;SDS011;41113;41.882;12.530;2023-02-18T00:39:17;60.65;;;44.38;;
54947;SDS011;41113;41.882;12.530;2023-02-18T00:41:42;58.40;;;41.92;;
54947;SDS011;41113;41.882;12.530;2023-02-18T00:44:08;60.10;;;42.63;;
54947;SDS011;41113;41.882;12.530;2023-02-18T00:46:34;61.83;;;44.17;;
54947;SDS011;41113;41.882;12.530;2023-02-18T00:49:00;60.53;;;43.13;;
54947;SDS011;41113;41.882;12.530;2023-02-18T00:51:25;64.03;;;44.28;;
54947;SDS011;41113;41.882;12.530;2023-02-18T00:53:51;60.92;;;42.20;;
54947;SDS011;41113;41.882;12.530;2023-02-18T00:56:17;54.10;;;39.10;;
54947;SDS011;41113;41.882;12.530;2023-02-18T00:58:42;52.65;;;38.58;;
54947;SDS011;41113;41.882;12.530;2023-02-18T01:01:08;56.30;;;39.40;;
54947;SDS011;41113;41.882;12.530;2023-02-18T01:03:35;54.15;;;38.53;;
54947;SDS011;41113;41.882;12.530;2023-02-18T01:06:01;55.88;;;39.67;;
54947;SDS011;41113;41.882;12.530;2023-02-18T01:08:28;55.40;;;39.80;;
54947;SDS011;41113;41.882;12.530;2023-02-18T01:10:54;53.80;;;37.53;;
54947;SDS011;41113;41.882;12.530;2023-02-18T01:13:21;51.15;;;37.60;;
54947;SDS011;41113;41.882;12.530;2023-02-18T01:15:47;53.38;;;37.38;;
54947;SDS011;41113;41.882;12.530;2023-02-18T01:18:13;50.35;;;37.30;;
54947;SDS011;41113;41.882;12.530;2023-02-18T01:20:39;58.28;;;38.83;;
54947;SDS011;41113;41.882;12.530;2023-02-18T01:23:06;51.45;;;36.65;;
54947;SDS011;41113;41.882;12.530;2023-02-18T01:25:32;54.85;;;36.90;;
54947;SDS011;41113;41.882;12.530;2023-02-18T01:28:00;51.10;;;36.28;;
54947;SDS011;41113;41.882;12.530;2023-02-18T01:30:26;60.08;;;39.25;;
54947;SDS011;41113;41.882;12.530;2023-02-18T01:32:51;54.97;;;37.85;;
54947;SDS011;41113;41.882;12.530;2023-02-18T01:35:17;55.63;;;36.92;;
54947;SDS011;41113;41.882;12.530;2023-02-18T01:37:44;53.72;;;36.88;;
54947;SDS011;41113;41.882;12.530;2023-02-18T01:40:11;51.85;;;37.28;;
54947;SDS011;41113;41.882;12.530;2023-02-18T01:42:38;53.08;;;38.30;;
54947;SDS011;41113;41.882;12.530;2023-02-18T01:50:32;53.85;;;37.58;;
54947;SDS011;41113;41.882;12.530;2023-02-18T01:53:00;53.28;;;37.42;;
54947;SDS011;41113;41.882;12.530;2023-02-18T01:55:26;55.47;;;37.85;;
54947;SDS011;41113;41.882;12.530;2023-02-18T01:57:52;50.28;;;36.42;;
54947;SDS011;41113;41.882;12.530;2023-02-18T02:00:18;48.53;;;34.17;;
54947;SDS011;41113;41.882;12.530;2023-02-18T02:02:46;41.70;;;30.48;;
54947;SDS011;41113;41.882;12.530;2023-02-18T02:05:13;39.13;;;29.80;;
54947;SDS011;41113;41.882;12.530;2023-02-18T02:07:40;41.25;;;30.40;;
54947;SDS011;41113;41.882;12.530;2023-02-18T02:10:09;43.05;;;29.58;;
54947;SDS011;41113;41.882;12.530;2023-02-18T02:37:15;46.80;;;33.92;;
54947;SDS011;41113;41.882;12.530;2023-02-18T02:48:12;39.95;;;29.75;;
54947;SDS011;41113;41.882;12.530;2023-02-18T02:50:44;44.72;;;29.27;;
54947;SDS011;41113;41.882;12.530;2023-02-18T02:53:17;39.47;;;28.95;;
54947;SDS011;41113;41.882;12.530;2023-02-18T02:55:46;40.53;;;28.85;;
54947;SDS011;41113;41.882;12.530;2023-02-18T02:58:13;41.35;;;28.52;;
54947;SDS011;41113;41.882;12.530;2023-02-18T03:11:52;47.28;;;31.10;;
54947;SDS011;41113;41.882;12.530;2023-02-18T03:15:08;43.30;;;30.92;;
54947;SDS011;41113;41.882;12.530;2023-02-18T03:17:35;40.15;;;28.67;;
54947;SDS011;41113;41.882;12.530;2023-02-18T03:20:16;43.88;;;28.23;;
54947;SDS011;41113;41.882;12.530;2023-02-18T03:22:50;43.10;;;29.08;;
54947;SDS011;41113;41.882;12.530;2023-02-18T03:25:18;40.15;;;28.75;;
54947;SDS011;41113;41.882;12.530;2023-02-18T03:27:52;37.78;;;27.40;;
54947;SDS011;41113;41.882;12.530;2023-02-18T03:30:32;36.95;;;27.92;;
54947;SDS011;41113;41.882;12.530;2023-02-18T03:33:04;39.45;;;26.52;;
54947;SDS011;41113;41.882;12.530;2023-02-18T03:35:34;40.03;;;27.13;;
54947;SDS011;41113;41.882;12.530;2023-02-18T03:38:44;40.90;;;26.60;;
54947;SDS011;41113;41.882;12.530;2023-02-18T03:41:02;40.50;;;26.33;;
54947;SDS011;41113;41.882;12.530;2023-02-18T03:43:29;45.13;;;28.80;;
54947;SDS011;41113;41.882;12.530;2023-02-18T03:45:54;37.15;;;26.23;;
54947;SDS011;41113;41.882;12.530;2023-02-18T03:48:20;39.95;;;29.27;;
54947;SDS011;41113;41.882;12.530;2023-02-18T03:50:45;41.80;;;29.17;;
54947;SDS011;41113;41.882;12.530;2023-02-18T03:53:11;36.70;;;26.85;;
54947;SDS011;41113;41.882;12.530;2023-02-18T03:55:36;39.45;;;28.60;;
54947;SDS011;41113;41.882;12.530;2023-02-18T03:58:01;42.50;;;27.58;;
54947;SDS011;41113;41.882;12.530;2023-02-18T04:00:27;42.13;;;28.33;;
54947;SDS011;41113;41.882;12.530;2023-02-18T04:02:52;46.22;;;29.73;;
54947;SDS011;41113;41.882;12.530;2023-02-18T04:05:18;43.28;;;29.50;;
54947;SDS011;41113;41.882;12.530;2023-02-18T04:07:43;41.83;;;28.95;;
54947;SDS011;41113;41.882;12.530;2023-02-18T04:10:08;42.92;;;28.48;;
54947;SDS011;41113;41.882;12.530;2023-02-18T04:12:34;43.15;;;28.48;;
54947;SDS011;41113;41.882;12.530;2023-02-18T04:15:00;39.72;;;28.00;;
54947;SDS011;41113;41.882;12.530;2023-02-18T04:17:25;42.30;;;31.02;;
54947;SDS011;41113;41.882;12.530;2023-02-18T04:19:50;41.08;;;30.85;;
54947;SDS011;41113;41.882;12.530;2023-02-18T04:22:16;42.85;;;30.45;;
54947;SDS011;41113;41.882;12.530;2023-02-18T04:24:41;42.10;;;29.92;;
54947;SDS011;41113;41.882;12.530;2023-02-18T04:27:06;43.80;;;29.98;;
54947;SDS011;41113;41.882;12.530;2023-02-18T04:29:32;39.67;;;28.27;;
54947;SDS011;41113;41.882;12.530;2023-02-18T04:31:57;41.33;;;30.02;;
54947;SDS011;41113;41.882;12.530;2023-02-18T04:34:23;42.38;;;30.65;;
54947;SDS011;41113;41.882;12.530;2023-02-18T04:36:48;48.25;;;30.67;;
54947;SDS011;41113;41.882;12.530;2023-02-18T04:39:17;40.50;;;29.90;;
54947;SDS011;41113;41.882;12.530;2023-02-18T04:41:42;43.20;;;29.23;;
54947;SDS011;41113;41.882;12.530;2023-02-18T04:44:07;44.25;;;31.23;;
54947;SDS011;41113;41.882;12.530;2023-02-18T04:46:33;45.28;;;31.15;;
54947;SDS011;41113;41.882;12.530;2023-02-18T04:48:58;44.13;;;31.25;;
54947;SDS011;41113;41.882;12.530;2023-02-18T04:51:24;41.97;;;30.52;;
54947;SDS011;41113;41.882;12.530;2023-02-18T04:53:49;44.55;;;31.60;;
54947;SDS011;41113;41.882;12.530;2023-02-18T04:56:14;46.70;;;32.58;;
54947;SDS011;41113;41.882;12.530;2023-02-18T04:58:40;42.97;;;30.73;;
54947;SDS011;41113;41.882;12.530;2023-02-18T05:01:05;45.35;;;32.50;;
54947;SDS011;41113;41.882;12.530;2023-02-18T05:03:31;51.53;;;34.28;;
54947;SDS011;41113;41.882;12.530;2023-02-18T05:05:57;48.30;;;33.95;;
54947;SDS011;41113;41.882;12.530;2023-02-18T05:08:22;44.45;;;31.85;;
54947;SDS011;41113;41.882;12.530;2023-02-18T05:10:48;45.70;;;32.42;;
54947;SDS011;41113;41.882;12.530;2023-02-18T05:13:13;49.53;;;33.83;;
54947;SDS011;41113;41.882;12.530;2023-02-18T05:15:39;49.10;;;34.60;;
54947;SDS011;41113;41.882;12.530;2023-02-18T05:18:04;52.75;;;33.63;;
54947;SDS011;41113;41.882;12.530;2023-02-18T05:20:31;48.38;;;32.90;;
54947;SDS011;41113;41.882;12.530;2023-02-18T05:22:56;45.88;;;31.17;;
54947;SDS011;41113;41.882;12.530;2023-02-18T05:25:22;49.90;;;32.60;;
54947;SDS011;41113;41.882;12.530;2023-02-18T05:27:47;52.28;;;36.05;;
54947;SDS011;41113;41.882;12.530;2023-02-18T05:30:12;49.38;;;34.63;;
54947;SDS011;41113;41.882;12.530;2023-02-18T05:32:38;49.65;;;35.22;;
54947;SDS011;41113;41.882;12.530;2023-02-18T05:35:04;49.72;;;34.28;;
54947;SDS011;41113;41.882;12.530;2023-02-18T05:37:29;50.33;;;35.58;;
54947;SDS011;41113;41.882;12.530;2023-02-18T05:39:55;46.78;;;33.40;;
54947;SDS011;41113;41.882;12.530;2023-02-18T05:42:20;47.28;;;34.20;;
54947;SDS011;41113;41.882;12.530;2023-02-18T05:44:47;51.95;;;35.15;;
54947;SDS011;41113;41.882;12.530;2023-02-18T05:47:12;49.00;;;33.88;;
54947;SDS011;41113;41.882;12.530;2023-02-18T05:49:38;50.80;;;32.92;;
54947;SDS011;41113;41.882;12.530;2023-02-18T05:52:05;42.90;;;32.13;;
54947;SDS011;41113;41.882;12.530;2023-02-18T05:54:31;43.42;;;30.30;;
54947;SDS011;41113;41.882;12.530;2023-02-18T05:56:57;41.15;;;30.60;;
54947;SDS011;41113;41.882;12.530;2023-02-18T05:59:23;47.13;;;32.88;;
54947;SDS011;41113;41.882;12.530;2023-02-18T06:01:48;51.90;;;35.25;;
54947;SDS011;41113;41.882;12.530;2023-02-18T06:04:14;49.92;;;33.60;;
54947;SDS011;41113;41.882;12.530;2023-02-18T06:06:40;49.60;;;34.45;;
54947;SDS011;41113;41.882;12.530;2023-02-18T06:09:06;49.60;;;34.03;;
54947;SDS011;41113;41.882;12.530;2023-02-18T06:11:32;50.45;;;34.83;;
54947;SDS011;41113;41.882;12.530;2023-02-18T06:13:58;47.90;;;34.67;;
54947;SDS011;41113;41.882;12.530;2023-02-18T06:16:24;51.65;;;34.78;;
54947;SDS011;41113;41.882;12.530;2023-02-18T06:18:49;46.95;;;34.00;;
54947;SDS011;41113;41.882;12.530;2023-02-18T06:21:15;50.90;;;33.80;;
54947;SDS011;41113;41.882;12.530;2023-02-18T06:23:41;50.75;;;33.20;;
54947;SDS011;41113;41.882;12.530;2023-02-18T06:26:06;47.33;;;34.33;;
54947;SDS011;41113;41.882;12.530;2023-02-18T06:28:32;46.30;;;32.92;;
54947;SDS011;41113;41.882;12.530;2023-02-18T06:30:57;44.03;;;32.45;;
54947;SDS011;41113;41.882;12.530;2023-02-18T06:33:22;46.45;;;32.42;;
54947;SDS011;41113;41.882;12.530;2023-02-18T06:36:06;45.13;;;32.78;;
54947;SDS011;41113;41.882;12.530;2023-02-18T06:38:35;47.83;;;31.08;;
54947;SDS011;41113;41.882;12.530;2023-02-18T06:41:03;43.45;;;31.17;;
54947;SDS011;41113;41.882;12.530;2023-02-18T06:43:29;43.85;;;31.23;;
54947;SDS011;41113;41.882;12.530;2023-02-18T06:45:55;44.67;;;30.33;;
54947;SDS011;41113;41.882;12.530;2023-02-18T06:48:22;46.67;;;32.20;;
54947;SDS011;41113;41.882;12.530;2023-02-18T06:50:48;46.47;;;31.95;;
54947;SDS011;41113;41.882;12.530;2023-02-18T06:53:14;46.28;;;32.67;;
54947;SDS011;41113;41.882;12.530;2023-02-18T06:55:41;44.95;;;32.00;;
54947;SDS011;41113;41.882;12.530;2023-02-18T06:58:08;46.30;;;32.72;;
54947;SDS011;41113;41.882;12.530;2023-02-18T07:00:34;48.92;;;31.83;;
54947;SDS011;41113;41.882;12.530;2023-02-18T07:03:00;46.50;;;32.47;;
54947;SDS011;41113;41.882;12.530;2023-02-18T07:05:25;45.55;;;32.20;;
54947;SDS011;41113;41.882;12.530;2023-02-18T07:07:51;40.88;;;30.48;;
54947;SDS011;41113;41.882;12.530;2023-02-18T07:10:17;46.75;;;32.10;;
54947;SDS011;41113;41.882;12.530;2023-02-18T07:12:43;47.33;;;32.60;;
54947;SDS011;41113;41.882;12.530;2023-02-18T07:15:08;44.08;;;31.27;;
54947;SDS011;41113;41.882;12.530;2023-02-18T07:17:34;45.45;;;31.50;;
54947;SDS011;41113;41.882;12.530;2023-02-18T07:20:00;45.85;;;30.75;;
54947;SDS011;41113;41.882;12.530;2023-02-18T07:22:26;41.05;;;30.17;;
54947;SDS011;41113;41.882;12.530;2023-02-18T07:24:51;42.83;;;30.00;;
54947;SDS011;41113;41.882;12.530;2023-02-18T07:27:17;42.67;;;31.02;;
54947;SDS011;41113;41.882;12.530;2023-02-18T07:29:43;47.55;;;32.22;;
54947;SDS011;41113;41.882;12.530;2023-02-18T07:32:12;46.35;;;30.20;;
54947;SDS011;41113;41.882;12.530;2023-02-18T07:37:07;43.22;;;29.58;;
54947;SDS011;41113;41.882;12.530;2023-02-18T07:39:42;42.40;;;29.90;;
54947;SDS011;41113;41.882;12.530;2023-02-18T07:42:12;43.70;;;28.35;;
54947;SDS011;41113;41.882;12.530;2023-02-18T07:44:38;41.88;;;30.30;;
54947;SDS011;41113;41.882;12.530;2023-02-18T07:47:05;43.92;;;30.90;;
54947;SDS011;41113;41.882;12.530;2023-02-18T07:49:32;40.38;;;28.33;;
54947;SDS011;41113;41.882;12.530;2023-02-18T07:51:58;39.08;;;26.63;;
54947;SDS011;41113;41.882;12.530;2023-02-18T07:54:23;41.53;;;29.33;;
54947;SDS011;41113;41.882;12.530;2023-02-18T07:56:49;40.22;;;28.10;;
54947;SDS011;41113;41.882;12.530;2023-02-18T07:59:15;48.70;;;31.48;;
54947;SDS011;41113;41.882;12.530;2023-02-18T08:01:40;43.05;;;30.02;;
54947;SDS011;41113;41.882;12.530;2023-02-18T08:04:06;41.55;;;31.30;;
54947;SDS011;41113;41.882;12.530;2023-02-18T08:06:36;44.78;;;28.42;;
54947;SDS011;41113;41.882;12.530;2023-02-18T08:09:03;40.53;;;28.05;;
54947;SDS011;41113;41.882;12.530;2023-02-18T08:11:29;47.03;;;31.55;;
54947;SDS011;41113;41.882;12.530;2023-02-18T08:13:55;47.20;;;32.17;;
54947;SDS011;41113;41.882;12.530;2023-02-18T08:16:21;46.47;;;29.65;;
54947;SDS011;41113;41.882;12.530;2023-02-18T08:18:47;45.65;;;30.45;;
54947;SDS011;41113;41.882;12.530;2023-02-18T08:21:15;43.80;;;29.58;;
54947;SDS011;41113;41.882;12.530;2023-02-18T08:23:41;41.85;;;30.08;;
54947;SDS011;41113;41.882;12.530;2023-02-18T08:26:07;42.90;;;30.02;;
54947;SDS011;41113;41.882;12.530;2023-02-18T08:28:33;38.60;;;27.58;;
54947;SDS011;41113;41.882;12.530;2023-02-18T08:30:59;38.90;;;27.55;;
54947;SDS011;41113;41.882;12.530;2023-02-18T08:33:24;40.53;;;27.25;;
54947;SDS011;41113;41.882;12.530;2023-02-18T08:35:51;34.60;;;25.33;;
54947;SDS011;41113;41.882;12.530;2023-02-18T08:38:17;38.03;;;27.58;;
54947;SDS011;41113;41.882;12.530;2023-02-18T08:40:43;38.80;;;26.60;;
54947;SDS011;41113;41.882;12.530;2023-02-18T08:43:08;36.33;;;25.58;;
54947;SDS011;41113;41.882;12.530;2023-02-18T08:45:35;37.47;;;26.63;;
54947;SDS011;41113;41.882;12.530;2023-02-18T08:48:02;38.25;;;25.48;;
54947;SDS011;41113;41.882;12.530;2023-02-18T08:50:28;34.55;;;24.73;;
54947;SDS011;41113;41.882;12.530;2023-02-18T08:52:54;33.65;;;24.90;;
54947;SDS011;41113;41.882;12.530;2023-02-18T08:55:20;35.65;;;26.55;;
54947;SDS011;41113;41.882;12.530;2023-02-18T08:57:48;37.70;;;25.63;;
54947;SDS011;41113;41.882;12.530;2023-02-18T09:00:14;33.40;;;24.63;;
54947;SDS011;41113;41.882;12.530;2023-02-18T09:02:41;34.85;;;23.85;;
54947;SDS011;41113;41.882;12.530;2023-02-18T09:05:07;36.53;;;24.02;;
54947;SDS011;41113;41.882;12.530;2023-02-18T09:07:34;33.65;;;24.98;;
54947;SDS011;41113;41.882;12.530;2023-02-18T09:09:59;39.65;;;26.33;;
54947;SDS011;41113;41.882;12.530;2023-02-18T09:12:25;34.95;;;25.23;;
54947;SDS011;41113;41.882;12.530;2023-02-18T09:14:50;36.70;;;25.35;;
54947;SDS011;41113;41.882;12.530;2023-02-18T09:17:16;36.97;;;27.10;;
54947;SDS011;41113;41.882;12.530;2023-02-18T09:19:41;36.38;;;26.42;;
54947;SDS011;41113;41.882;12.530;2023-02-18T09:22:07;41.90;;;26.08;;
54947;SDS011;41113;41.882;12.530;2023-02-18T09:24:36;35.58;;;25.48;;
54947;SDS011;41113;41.882;12.530;2023-02-18T09:27:02;36.53;;;25.45;;
54947;SDS011;41113;41.882;12.530;2023-02-18T09:29:28;38.70;;;26.13;;
54947;SDS011;41113;41.882;12.530;2023-02-18T09:31:53;37.28;;;26.80;;
54947;SDS011;41113;41.882;12.530;2023-02-18T09:34:18;40.05;;;27.48;;
54947;SDS011;41113;41.882;12.530;2023-02-18T09:36:44;37.75;;;25.23;;
54947;SDS011;41113;41.882;12.530;2023-02-18T09:39:09;35.47;;;25.80;;
54947;SDS011;41113;41.882;12.530;2023-02-18T09:41:38;36.67;;;26.10;;
54947;SDS011;41113;41.882;12.530;2023-02-18T09:47:05;35.63;;;25.33;;
54947;SDS011;41113;41.882;12.530;2023-02-18T09:49:40;36.22;;;24.85;;
54947;SDS011;41113;41.882;12.530;2023-02-18T09:52:12;34.30;;;25.27;;
54947;SDS011;41113;41.882;12.530;2023-02-18T09:54:40;34.83;;;24.42;;
54947;SDS011;41113;41.882;12.530;2023-02-18T09:57:06;34.90;;;24.08;;
54947;SDS011;41113;41.882;12.530;2023-02-18T09:59:45;33.22;;;23.08;;
54947;SDS011;41113;41.882;12.530;2023-02-18T10:02:14;34.40;;;24.80;;
54947;SDS011;41113;41.882;12.530;2023-02-18T10:04:44;33.83;;;24.35;;
54947;SDS011;41113;41.882;12.530;2023-02-18T10:07:31;36.05;;;25.35;;
54947;SDS011;41113;41.882;12.530;2023-02-18T10:09:58;32.72;;;23.90;;
54947;SDS011;41113;41.882;12.530;2023-02-18T10:12:28;32.58;;;23.92;;
54947;SDS011;41113;41.882;12.530;2023-02-18T10:14:57;31.63;;;23.23;;
54947;SDS011;41113;41.882;12.530;2023-02-18T10:17:25;33.70;;;24.15;;
54947;SDS011;41113;41.882;12.530;2023-02-18T10:19:54;32.40;;;23.23;;
54947;SDS011;41113;41.882;12.530;2023-02-18T10:22:22;32.30;;;23.83;;
54947;SDS011;41113;41.882;12.530;2023-02-18T10:24:53;33.05;;;24.13;;
54947;SDS011;41113;41.882;12.530;2023-02-18T10:27:26;28.80;;;20.27;;
54947;SDS011;41113;41.882;12.530;2023-02-18T10:29:59;32.50;;;23.10;;
54947;SDS011;41113;41.882;12.530;2023-02-18T10:32:44;32.45;;;24.13;;
54947;SDS011;41113;41.882;12.530;2023-02-18T10:35:19;32.58;;;22.77;;
54947;SDS011;41113;41.882;12.530;2023-02-18T10:43:22;25.55;;;18.55;;
54947;SDS011;41113;41.882;12.530;2023-02-18T10:48:48;24.92;;;16.73;;
54947;SDS011;41113;41.882;12.530;2023-02-18T10:51:22;24.73;;;17.80;;
54947;SDS011;41113;41.882;12.530;2023-02-18T10:53:50;24.02;;;16.33;;
54947;SDS011;41113;41.882;12.530;2023-02-18T10:59:19;22.95;;;14.85;;
54947;SDS011;41113;41.882;12.530;2023-02-18T11:01:57;21.48;;;14.18;;
54947;SDS011;41113;41.882;12.530;2023-02-18T11:04:36;19.70;;;13.18;;
54947;SDS011;41113;41.882;12.530;2023-02-18T11:07:14;19.40;;;12.50;;
54947;SDS011;41113;41.882;12.530;2023-02-18T11:14:49;21.00;;;13.18;;
54947;SDS011;41113;41.882;12.530;2023-02-18T11:17:31;20.55;;;12.35;;
54947;SDS011;41113;41.882;12.530;2023-02-18T11:19:58;19.92;;;13.07;;
54947;SDS011;41113;41.882;12.530;2023-02-18T11:22:30;20.15;;;13.10;;
54947;SDS011;41113;41.882;12.530;2023-02-18T11:25:01;19.02;;;12.50;;
54947;SDS011;41113;41.882;12.530;2023-02-18T11:27:43;16.92;;;11.88;;
54947;SDS011;41113;41.882;12.530;2023-02-18T11:30:20;19.13;;;12.65;;
54947;SDS011;41113;41.882;12.530;2023-02-18T11:32:51;15.95;;;10.13;;
54947;SDS011;41113;41.882;12.530;2023-02-18T11:35:21;14.75;;;8.60;;
54947;SDS011;41113;41.882;12.530;2023-02-18T11:37:49;13.90;;;8.50;;
54947;SDS011;41113;41.882;12.530;2023-02-18T11:40:23;13.98;;;8.77;;
54947;SDS011;41113;41.882;12.530;2023-02-18T11:43:01;14.80;;;9.27;;
54947;SDS011;41113;41.882;12.530;2023-02-18T11:45:32;13.10;;;8.02;;
54947;SDS011;41113;41.882;12.530;2023-02-18T11:48:00;14.05;;;8.20;;
54947;SDS011;41113;41.882;12.530;2023-02-18T11:50:29;13.90;;;8.30;;
54947;SDS011;41113;41.882;12.530;2023-02-18T11:52:57;16.40;;;8.27;;
54947;SDS011;41113;41.882;12.530;2023-02-18T11:55:24;13.93;;;8.68;;
54947;SDS011;41113;41.882;12.530;2023-02-18T12:00:40;15.05;;;9.63;;
54947;SDS011;41113;41.882;12.530;2023-02-18T12:03:29;16.13;;;9.35;;
54947;SDS011;41113;41.882;12.530;2023-02-18T12:06:11;14.68;;;8.65;;
54947;SDS011;41113;41.882;12.530;2023-02-18T12:08:48;14.95;;;8.95;;
54947;SDS011;41113;41.882;12.530;2023-02-18T12:11:39;13.80;;;9.00;;
54947;SDS011;41113;41.882;12.530;2023-02-18T12:14:08;14.45;;;8.85;;
54947;SDS011;41113;41.882;12.530;2023-02-18T12:28:16;13.73;;;8.77;;
54947;SDS011;41113;41.882;12.530;2023-02-18T12:41:49;16.48;;;9.38;;
54947;SDS011;41113;41.882;12.530;2023-02-18T12:44:25;17.15;;;10.20;;
54947;SDS011;41113;41.882;12.530;2023-02-18T12:47:19;16.98;;;10.45;;
54947;SDS011;41113;41.882;12.530;2023-02-18T12:58:56;17.10;;;9.15;;
54947;SDS011;41113;41.882;12.530;2023-02-18T13:01:34;15.35;;;9.27;;
54947;SDS011;41113;41.882;12.530;2023-02-18T13:07:28;15.18;;;9.68;;
54947;SDS011;41113;41.882;12.530;2023-02-18T13:13:18;14.18;;;8.77;;
54947;SDS011;41113;41.882;12.530;2023-02-18T13:18:53;14.60;;;9.80;;
54947;SDS011;41113;41.882;12.530;2023-02-18T13:21:27;14.13;;;9.35;;
54947;SDS011;41113;41.882;12.530;2023-02-18T13:24:54;15.20;;;8.98;;
54947;SDS011;41113;41.882;12.530;2023-02-18T13:26:59;15.82;;;9.00;;
54947;SDS011;41113;41.882;12.530;2023-02-18T13:29:43;14.25;;;8.48;;
54947;SDS011;41113;41.882;12.530;2023-02-18T13:35:03;18.63;;;10.63;;
54947;SDS011;41113;41.882;12.530;2023-02-18T13:41:01;13.90;;;8.45;;
54947;SDS011;41113;41.882;12.530;2023-02-18T13:48:44;15.68;;;9.55;;
54947;SDS011;41113;41.882;12.530;2023-02-18T13:51:14;16.95;;;9.82;;
54947;SDS011;41113;41.882;12.530;2023-02-18T13:54:11;22.90;;;12.68;;
54947;SDS011;41113;41.882;12.530;2023-02-18T13:57:04;19.13;;;9.90;;
54947;SDS011;41113;41.882;12.530;2023-02-18T14:02:07;14.50;;;8.82;;
54947;SDS011;41113;41.882;12.530;2023-02-18T14:07:28;14.75;;;8.70;;
54947;SDS011;41113;41.882;12.530;2023-02-18T14:23:54;14.35;;;7.72;;
54947;SDS011;41113;41.882;12.530;2023-02-18T14:26:49;14.95;;;8.63;;
54947;SDS011;41113;41.882;12.530;2023-02-18T14:28:56;16.30;;;8.95;;
54947;SDS011;41113;41.882;12.530;2023-02-18T14:36:26;14.98;;;8.63;;
54947;SDS011;41113;41.882;12.530;2023-02-18T14:39:02;13.65;;;7.95;;
54947;SDS011;41113;41.882;12.530;2023-02-18T14:49:54;15.55;;;8.93;;
54947;SDS011;41113;41.882;12.530;2023-02-18T14:52:30;13.27;;;8.00;;
54947;SDS011;41113;41.882;12.530;2023-02-18T14:55:01;15.43;;;9.20;;
54947;SDS011;41113;41.882;12.530;2023-02-18T14:58:15;14.75;;;7.40;;
54947;SDS011;41113;41.882;12.530;2023-02-18T15:00:20;14.23;;;9.05;;
54947;SDS011;41113;41.882;12.530;2023-02-18T15:02:49;111.15;;;60.05;;
54947;SDS011;41113;41.882;12.530;2023-02-18T15:05:18;168.30;;;79.20;;
54947;SDS011;41113;41.882;12.530;2023-02-18T15:08:01;126.57;;;63.15;;
54947;SDS011;41113;41.882;12.530;2023-02-18T15:16:00;89.70;;;55.25;;
54947;SDS011;41113;41.882;12.530;2023-02-18T15:18:36;93.70;;;60.72;;
54947;SDS011;41113;41.882;12.530;2023-02-18T15:21:15;165.98;;;106.28;;
54947;SDS011;41113;41.882;12.530;2023-02-18T15:23:48;150.80;;;97.93;;
54947;SDS011;41113;41.882;12.530;2023-02-18T15:26:14;165.07;;;111.80;;
54947;SDS011;41113;41.882;12.530;2023-02-18T15:28:49;102.43;;;71.82;;
54947;SDS011;41113;41.882;12.530;2023-02-18T15:31:23;116.45;;;87.30;;
54947;SDS011;41113;41.882;12.530;2023-02-18T15:33:49;60.60;;;44.75;;
54947;SDS011;41113;41.882;12.530;2023-02-18T15:36:16;218.93;;;130.32;;
54947;SDS011;41113;41.882;12.530;2023-02-18T15:38:41;423.13;;;208.00;;
54947;SDS011;41113;41.882;12.530;2023-02-18T15:41:10;149.90;;;88.07;;
54947;SDS011;41113;41.882;12.530;2023-02-18T15:43:52;189.18;;;106.18;;
54947;SDS011;41113;41.882;12.530;2023-02-18T15:46:29;127.63;;;77.28;;
54947;SDS011;41113;41.882;12.530;2023-02-18T15:48:56;135.60;;;86.80;;
54947;SDS011;41113;41.882;12.530;2023-02-18T15:51:26;62.80;;;38.25;;
54947;SDS011;41113;41.882;12.530;2023-02-18T15:56:54;380.00;;;314.60;;
54947;SDS011;41113;41.882;12.530;2023-02-18T15:59:25;76.10;;;53.30;;
54947;SDS011;41113;41.882;12.530;2023-02-18T16:01:55;47.65;;;34.75;;
54947;SDS011;41113;41.882;12.530;2023-02-18T16:04:28;45.05;;;33.60;;
54947;SDS011;41113;41.882;12.530;2023-02-18T16:06:57;37.00;;;27.05;;
54947;SDS011;41113;41.882;12.530;2023-02-18T16:09:30;27.17;;;20.38;;
54947;SDS011;41113;41.882;12.530;2023-02-18T16:11:58;22.80;;;14.48;;
54947;SDS011;41113;41.882;12.530;2023-02-18T16:14:38;23.00;;;16.13;;
54947;SDS011;41113;41.882;12.530;2023-02-18T16:19:33;16.58;;;10.55;;
54947;SDS011;41113;41.882;12.530;2023-02-18T16:22:04;15.45;;;10.65;;
54947;SDS011;41113;41.882;12.530;2023-02-18T16:24:30;16.00;;;9.88;;
54947;SDS011;41113;41.882;12.530;2023-02-18T16:27:05;16.92;;;9.82;;
54947;SDS011;41113;41.882;12.530;2023-02-18T16:29:41;12.93;;;8.20;;
54947;SDS011;41113;41.882;12.530;2023-02-18T16:32:08;14.48;;;8.70;;
54947;SDS011;41113;41.882;12.530;2023-02-18T16:34:33;16.92;;;9.30;;
54947;SDS011;41113;41.882;12.530;2023-02-18T16:37:00;13.02;;;8.13;;
54947;SDS011;41113;41.882;12.530;2023-02-18T16:39:45;14.65;;;8.32;;
54947;SDS011;41113;41.882;12.530;2023-02-18T16:42:11;16.13;;;8.50;;
54947;SDS011;41113;41.882;12.530;2023-02-18T16:44:38;16.50;;;8.65;;
54947;SDS011;41113;41.882;12.530;2023-02-18T16:47:04;12.77;;;8.55;;
54947;SDS011;41113;41.882;12.530;2023-02-18T16:49:30;18.48;;;8.77;;
54947;SDS011;41113;41.882;12.530;2023-02-18T16:51:57;14.43;;;8.40;;
54947;SDS011;41113;41.882;12.530;2023-02-18T16:54:25;15.57;;;9.43;;
54947;SDS011;41113;41.882;12.530;2023-02-18T16:56:52;16.80;;;9.63;;
54947;SDS011;41113;41.882;12.530;2023-02-18T16:59:17;16.50;;;9.48;;
54947;SDS011;41113;41.882;12.530;2023-02-18T17:01:43;15.85;;;9.73;;
54947;SDS011;41113;41.882;12.530;2023-02-18T17:04:09;16.17;;;9.82;;
54947;SDS011;41113;41.882;12.530;2023-02-18T17:06:37;16.10;;;9.82;;
54947;SDS011;41113;41.882;12.530;2023-02-18T17:11:40;17.08;;;11.18;;
54947;SDS011;41113;41.882;12.530;2023-02-18T17:14:08;16.35;;;9.73;;
54947;SDS011;41113;41.882;12.530;2023-02-18T17:16:37;15.80;;;9.18;;